Time;durP1;ratioP1;P1;durP2;ratioP2;P2;SDS_P1;SDS_P2;PMS_P1;PMS_P2;Temp;Humidity;BMP_temperature;BMP_pressure;BME280_temperature;BME280_humidity;BME280_pressure;Samples;Min_cycle;Max_cycle;Signal;HPM_P1;HPM_P2
2021/11/08 00:01:22;;;;;;;14.90;14.10;;;18.10;99.90;;;;;;4954501;29;20512;-56
2021/11/08 00:03:52;;;;;;;14.77;14.17;;;18.10;99.90;;;;;;4954319;29;20463;-54
2021/11/08 00:06:19;;;;;;;14.57;13.87;;;18.10;99.90;;;;;;4954704;29;20451;-52
2021/11/08 00:08:46;;;;;;;14.17;13.40;;;18.10;99.90;;;;;;4953697;28;20552;-49
2021/11/08 00:11:14;;;;;;;14.33;13.30;;;18.10;99.90;;;;;;4954373;29;20822;-50
2021/11/08 00:13:41;;;;;;;14.20;13.57;;;18.10;99.90;;;;;;4954369;29;20448;-50
2021/11/08 00:16:16;;;;;;;13.93;13.43;;;18.10;99.90;;;;;;4954215;29;20551;-50
2021/11/08 00:18:49;;;;;;;13.83;13.23;;;18.00;99.90;;;;;;4954115;29;20491;-53
2021/11/08 00:21:19;;;;;;;14.10;13.50;;;18.00;99.90;;;;;;4954375;28;20453;-53
2021/11/08 00:23:46;;;;;;;15.00;14.30;;;18.10;99.90;;;;;;4954248;29;20449;-55
2021/11/08 00:26:13;;;;;;;15.00;14.00;;;18.00;99.90;;;;;;4954353;29;20448;-50
2021/11/08 00:28:40;;;;;;;14.83;14.13;;;18.00;99.90;;;;;;4953662;29;20808;-53
2021/11/08 00:31:07;;;;;;;13.77;13.27;;;18.00;99.90;;;;;;4953922;28;20480;-49
2021/11/08 00:33:33;;;;;;;13.90;13.30;;;18.00;99.90;;;;;;4954060;29;20826;-53
2021/11/08 00:36:02;;;;;;;15.23;14.53;;;18.00;99.90;;;;;;4954093;29;20453;-55
2021/11/08 00:38:30;;;;;;;14.77;14.10;;;18.00;99.90;;;;;;4953664;29;20480;-54
2021/11/08 00:40:57;;;;;;;14.77;14.17;;;17.90;99.90;;;;;;4953744;29;20528;-49
2021/11/08 00:43:24;;;;;;;14.17;13.57;;;17.90;99.90;;;;;;4953840;29;20504;-49
2021/11/08 00:45:51;;;;;;;13.57;12.97;;;17.90;99.90;;;;;;4953937;29;20467;-49
2021/11/08 00:48:20;;;;;;;15.00;14.30;;;17.90;99.90;;;;;;4953579;29;20819;-49
2021/11/08 00:50:47;;;;;;;14.10;13.50;;;18.00;99.90;;;;;;4953609;29;21000;-50
2021/11/08 00:53:16;;;;;;;14.70;14.03;;;18.00;99.90;;;;;;4953703;29;20459;-49
2021/11/08 00:55:44;;;;;;;14.20;13.50;;;17.90;99.90;;;;;;4953855;29;20452;-49
2021/11/08 00:58:17;;;;;;;13.73;13.23;;;17.90;99.90;;;;;;4953328;29;20609;-51
2021/11/08 01:00:43;;;;;;;14.83;14.03;;;17.90;99.90;;;;;;4953491;29;21051;-49
2021/11/08 01:03:13;;;;;;;14.23;13.63;;;17.90;99.90;;;;;;4953613;29;20455;-50
2021/11/08 01:05:40;;;;;;;14.07;13.40;;;17.90;99.90;;;;;;4953640;29;20452;-53
2021/11/08 01:08:07;;;;;;;13.67;13.17;;;17.90;99.90;;;;;;4953299;28;20441;-51
2021/11/08 01:10:35;;;;;;;14.57;13.87;;;17.90;99.90;;;;;;4953056;29;20464;-54
2021/11/08 01:13:02;;;;;;;13.90;13.40;;;17.80;99.90;;;;;;4953575;29;20447;-52
2021/11/08 01:15:29;;;;;;;13.60;13.13;;;17.80;99.90;;;;;;4953540;29;20453;-53
2021/11/08 01:17:56;;;;;;;15.43;14.73;;;17.80;99.90;;;;;;4953367;29;20488;-55
2021/11/08 01:20:30;;;;;;;14.60;13.90;;;17.90;99.90;;;;;;4957450;28;20845;-52
2021/11/08 01:22:57;;;;;;;13.80;13.30;;;17.90;99.90;;;;;;4959848;29;20535;-56
2021/11/08 01:25:24;;;;;;;13.83;13.43;;;17.80;99.90;;;;;;4959775;29;20806;-57
2021/11/08 01:27:55;;;;;;;14.10;13.60;;;17.90;99.90;;;;;;4959685;29;20441;-48
2021/11/08 01:30:24;;;;;;;13.97;13.37;;;17.90;99.90;;;;;;4959661;28;20487;-48
2021/11/08 01:32:56;;;;;;;15.03;14.27;;;17.80;99.90;;;;;;4959510;29;20871;-49
2021/11/08 01:35:30;;;;;;;13.50;13.00;;;17.80;99.90;;;;;;4959522;28;20452;-50
2021/11/08 01:38:03;;;;;;;13.83;13.20;;;17.80;99.90;;;;;;4959625;29;20534;-54
2021/11/08 01:40:30;;;;;;;13.90;13.40;;;17.80;99.90;;;;;;4959484;29;20886;-49
2021/11/08 01:42:59;;;;;;;14.30;13.70;;;17.80;99.90;;;;;;4959575;28;20475;-54
2021/11/08 01:45:26;;;;;;;13.17;12.70;;;17.80;99.90;;;;;;4959391;28;20484;-48
2021/11/08 01:47:53;;;;;;;13.13;12.73;;;17.80;99.90;;;;;;4959396;28;20445;-56
2021/11/08 01:50:20;;;;;;;14.67;14.07;;;17.80;99.90;;;;;;4959367;28;20473;-55
2021/11/08 01:52:47;;;;;;;13.50;13.00;;;17.80;99.90;;;;;;4959815;28;20452;-51
2021/11/08 01:55:14;;;;;;;14.63;13.93;;;17.80;99.90;;;;;;4959553;29;20560;-50
2021/11/08 01:57:42;;;;;;;13.10;12.60;;;17.80;99.90;;;;;;4959258;29;21009;-51
2021/11/08 02:00:14;;;;;;;13.60;13.00;;;17.80;99.90;;;;;;4959232;28;20468;-55
2021/11/08 02:02:40;;;;;;;13.20;12.70;;;17.80;99.90;;;;;;4959552;29;20459;-55
2021/11/08 02:05:07;;;;;;;12.30;11.90;;;17.80;99.90;;;;;;4959539;29;20481;-52
2021/11/08 02:07:34;;;;;;;13.43;12.93;;;17.80;99.90;;;;;;4959481;28;20452;-49
2021/11/08 02:10:03;;;;;;;14.17;13.67;;;17.80;99.90;;;;;;4959013;29;20467;-49
2021/11/08 02:12:30;;;;;;;13.20;12.60;;;17.80;99.90;;;;;;4959419;28;20453;-50
2021/11/08 02:14:57;;;;;;;13.17;12.70;;;17.80;99.90;;;;;;4959379;29;20452;-49
2021/11/08 02:17:25;;;;;;;13.57;13.07;;;17.80;99.90;;;;;;4959347;29;20885;-54
2021/11/08 02:19:56;;;;;;;13.43;12.83;;;17.80;99.90;;;;;;4959038;29;20468;-54
2021/11/08 02:22:24;;;;;;;13.27;12.77;;;17.80;99.90;;;;;;4959087;28;20456;-51
2021/11/08 02:24:50;;;;;;;13.07;12.67;;;17.80;99.90;;;;;;4959203;28;21025;-48
2021/11/08 02:27:18;;;;;;;13.97;13.47;;;17.70;99.90;;;;;;4959248;29;20451;-52
2021/11/08 02:29:45;;;;;;;12.83;12.43;;;17.70;99.90;;;;;;4959542;28;20479;-51
2021/11/08 02:32:12;;;;;;;12.00;11.50;;;17.70;99.90;;;;;;4955918;28;20543;-49
2021/11/08 02:34:40;;;;;;;12.10;11.60;;;17.80;99.90;;;;;;4955752;29;20456;-49
2021/11/08 02:37:08;;;;;;;12.00;11.60;;;17.80;99.90;;;;;;4956194;29;20464;-53
2021/11/08 02:39:37;;;;;;;12.20;11.70;;;17.80;99.90;;;;;;4955816;29;20897;-52
2021/11/08 02:42:04;;;;;;;12.30;11.80;;;17.70;99.90;;;;;;4955806;29;20556;-48
2021/11/08 02:44:31;;;;;;;12.87;12.37;;;17.80;99.90;;;;;;4956017;29;20942;-48
2021/11/08 02:46:58;;;;;;;11.77;11.37;;;17.80;99.90;;;;;;4956086;29;20452;-49
2021/11/08 02:49:26;;;;;;;11.97;11.37;;;17.80;99.90;;;;;;4955663;29;21000;-48
2021/11/08 02:52:00;;;;;;;11.33;10.93;;;17.80;99.90;;;;;;4955652;28;20444;-53
2021/11/08 02:54:33;;;;;;;11.53;11.03;;;17.80;99.90;;;;;;4955965;29;20930;-50
2021/11/08 02:56:59;;;;;;;12.13;11.63;;;17.80;99.90;;;;;;4955782;29;20519;-48
2021/11/08 02:59:29;;;;;;;11.70;11.30;;;17.70;99.90;;;;;;4955325;29;20488;-50
2021/11/08 03:01:56;;;;;;;11.10;10.80;;;17.80;99.90;;;;;;4955547;29;20484;-53
2021/11/08 03:04:27;;;;;;;12.37;11.60;;;17.80;99.90;;;;;;4955692;29;20456;-52
2021/11/08 03:06:54;;;;;;;12.47;11.90;;;17.70;99.90;;;;;;4955661;29;20480;-48
2021/11/08 03:09:24;;;;;;;11.43;11.03;;;17.70;99.90;;;;;;4955282;29;20833;-50
2021/11/08 03:11:53;;;;;;;12.90;12.40;;;17.70;99.90;;;;;;4955088;28;20460;-52
2021/11/08 03:14:24;;;;;;;12.10;11.70;;;17.70;99.90;;;;;;4955565;29;20457;-52
2021/11/08 03:16:54;;;;;;;12.07;11.57;;;17.70;99.90;;;;;;4955518;29;20457;-54
2021/11/08 03:19:25;;;;;;;11.17;10.87;;;17.70;99.90;;;;;;4955075;29;20492;-54
2021/11/08 03:21:54;;;;;;;12.13;11.63;;;17.70;99.90;;;;;;4955494;29;20477;-53
2021/11/08 03:24:35;;;;;;;12.80;12.30;;;17.70;99.90;;;;;;4955092;29;20488;-54
2021/11/08 03:27:07;;;;;;;11.87;11.37;;;17.70;99.90;;;;;;4955190;29;20452;-50
2021/11/08 03:29:34;;;;;;;12.77;12.30;;;17.70;99.90;;;;;;4954930;29;20483;-50
2021/11/08 03:32:01;;;;;;;13.27;12.60;;;17.70;99.90;;;;;;4955291;29;20814;-49
2021/11/08 03:34:29;;;;;;;12.87;12.30;;;17.70;99.90;;;;;;4954962;29;20552;-51
2021/11/08 03:36:56;;;;;;;12.80;12.30;;;17.70;99.90;;;;;;4955059;29;20445;-53
2021/11/08 03:39:24;;;;;;;12.20;11.80;;;17.60;99.90;;;;;;4954632;29;20488;-54
2021/11/08 03:41:51;;;;;;;13.33;12.80;;;17.70;99.90;;;;;;4954913;28;20441;-50
2021/11/08 03:44:19;;;;;;;11.93;11.43;;;17.70;99.90;;;;;;4954103;28;20942;-55
2021/11/08 03:46:46;;;;;;;12.03;11.53;;;17.70;99.90;;;;;;4954661;29;20452;-50
2021/11/08 03:49:13;;;;;;;11.60;11.07;;;17.70;99.90;;;;;;4954638;29;20472;-48
2021/11/08 03:51:40;;;;;;;12.37;11.97;;;17.70;99.90;;;;;;4954927;29;20824;-50
2021/11/08 03:54:08;;;;;;;12.73;12.23;;;17.70;99.90;;;;;;4954874;29;20456;-54
2021/11/08 03:56:35;;;;;;;12.00;11.60;;;17.70;99.90;;;;;;4954556;29;20456;-55
2021/11/08 03:59:02;;;;;;;12.00;11.60;;;17.70;99.90;;;;;;4954248;29;20480;-55
2021/11/08 04:01:35;;;;;;;12.13;11.73;;;17.70;99.90;;;;;;4954847;28;20503;-48
2021/11/08 04:04:02;;;;;;;12.20;11.80;;;17.70;99.90;;;;;;4954535;28;20489;-48
2021/11/08 04:06:29;;;;;;;12.37;11.97;;;17.70;99.90;;;;;;4954613;29;20512;-48
2021/11/08 04:08:58;;;;;;;11.73;11.33;;;17.70;99.90;;;;;;4954221;29;20456;-48
2021/11/08 04:11:25;;;;;;;12.20;11.77;;;17.70;99.90;;;;;;4954197;29;20453;-50
2021/11/08 04:13:52;;;;;;;12.07;11.67;;;17.70;99.90;;;;;;4953823;29;20456;-48
2021/11/08 04:16:19;;;;;;;12.50;11.90;;;17.70;99.90;;;;;;4954340;29;20452;-51
2021/11/08 04:18:50;;;;;;;13.60;13.00;;;17.70;99.90;;;;;;4954045;29;20488;-51
2021/11/08 04:21:18;;;;;;;12.30;11.80;;;17.70;99.90;;;;;;4954294;29;20883;-49
2021/11/08 04:23:45;;;;;;;12.30;11.80;;;17.70;99.90;;;;;;4954084;29;20475;-52
2021/11/08 04:26:13;;;;;;;11.97;11.50;;;17.70;99.90;;;;;;4954141;29;20839;-52
2021/11/08 04:28:40;;;;;;;11.60;11.30;;;17.80;99.90;;;;;;4954053;29;20827;-48
2021/11/08 04:31:08;;;;;;;11.87;11.47;;;17.70;99.90;;;;;;4953948;29;20567;-50
2021/11/08 04:33:42;;;;;;;11.53;11.13;;;17.70;99.90;;;;;;4954025;29;20456;-55
2021/11/08 04:39:06;;;;;;;12.00;11.60;;;17.80;99.90;;;;;;4933235;28;20479;-51
2021/11/08 04:41:41;;;;;;;11.47;11.13;;;17.80;99.90;;;;;;4953894;29;20452;-53
2021/11/08 04:44:22;;;;;;;11.80;11.40;;;17.80;99.90;;;;;;4953821;29;20540;-51
2021/11/08 04:47:03;;;;;;;11.53;11.03;;;17.80;99.90;;;;;;4953972;29;20487;-48
2021/11/08 04:49:36;;;;;;;12.30;11.70;;;17.80;99.90;;;;;;4953757;29;20492;-49
2021/11/08 04:52:19;;;;;;;12.40;11.90;;;17.80;99.90;;;;;;4953947;29;20815;-48
2021/11/08 04:54:52;;;;;;;12.60;12.20;;;17.80;99.90;;;;;;4953122;28;20539;-49
2021/11/08 05:22:19;;;;;;;15.20;14.30;;;17.70;99.90;;;;;;4953698;29;20828;-52
2021/11/08 05:25:24;;;;;;;12.57;12.17;;;17.70;99.90;;;;;;4953704;28;20456;-51
2021/11/08 05:28:16;;;;;;;13.50;12.90;;;17.70;99.90;;;;;;4953430;28;20543;-48
2021/11/08 05:30:43;;;;;;;14.07;13.17;;;17.70;99.90;;;;;;4952807;29;20481;-48
2021/11/08 05:33:10;;;;;;;16.33;13.10;;;17.70;99.90;;;;;;4953380;28;20958;-49
2021/11/08 05:35:37;;;;;;;14.87;10.50;;;17.90;99.90;;;;;;4953266;29;20457;-53
2021/11/08 05:38:08;;;;;;;14.47;9.17;;;18.00;99.90;;;;;;4953209;29;20441;-48
2021/11/08 05:40:37;;;;;;;14.83;8.93;;;18.10;99.90;;;;;;4953090;28;20472;-50
2021/11/08 05:43:06;;;;;;;17.57;7.30;;;18.20;99.90;;;;;;4952977;28;20453;-51
2021/11/08 05:45:34;;;;;;;8.60;6.97;;;18.20;99.90;;;;;;4953080;29;20463;-51
2021/11/08 05:48:01;;;;;;;21.97;8.23;;;18.10;99.90;;;;;;4953146;29;20446;-47
2021/11/08 05:50:29;;;;;;;14.30;8.10;;;18.20;99.90;;;;;;4952765;29;21065;-49
2021/11/08 05:52:56;;;;;;;9.20;8.30;;;18.60;99.90;;;;;;4953189;29;20527;-48
2021/11/08 05:55:29;;;;;;;10.93;9.63;;;19.60;99.90;;;;;;4953344;29;20441;-53
2021/11/08 05:58:06;;;;;;;12.60;11.30;;;20.30;99.90;;;;;;4953131;29;20476;-48
2021/11/08 06:50:01;;;;;;;12.07;11.23;;;20.90;99.90;;;;;;4955748;29;20451;-55
2021/11/08 06:52:29;;;;;;;11.10;10.40;;;20.80;99.90;;;;;;4955900;29;20459;-52
2021/11/08 06:54:57;;;;;;;12.70;11.50;;;20.80;99.90;;;;;;4955820;29;20968;-51
2021/11/08 06:57:31;;;;;;;12.90;12.00;;;20.80;99.90;;;;;;4955902;28;20806;-56
2021/11/08 06:59:57;;;;;;;12.63;11.83;;;20.70;99.90;;;;;;4955457;29;20576;-55
2021/11/08 07:02:26;;;;;;;12.10;11.50;;;20.70;99.90;;;;;;4955776;29;20449;-49
2021/11/08 07:04:53;;;;;;;13.90;13.10;;;20.70;99.90;;;;;;4955651;29;20448;-51
2021/11/08 07:07:20;;;;;;;13.50;12.80;;;20.70;99.90;;;;;;4955541;29;20460;-53
2021/11/08 07:09:46;;;;;;;13.40;12.37;;;20.60;99.90;;;;;;4955338;29;20472;-54
2021/11/08 07:12:13;;;;;;;12.73;12.07;;;20.50;99.90;;;;;;4955605;29;20459;-54
2021/11/08 07:14:41;;;;;;;12.30;11.70;;;20.50;99.90;;;;;;4955625;29;20455;-54
2021/11/08 07:17:08;;;;;;;12.90;12.20;;;20.50;99.90;;;;;;4955094;28;21021;-55
2021/11/08 07:19:36;;;;;;;13.60;12.90;;;20.40;99.90;;;;;;4955095;29;20492;-55
2021/11/08 07:22:04;;;;;;;13.40;12.80;;;20.40;99.90;;;;;;4955554;29;20448;-54
2021/11/08 07:24:31;;;;;;;13.13;12.43;;;20.40;99.90;;;;;;4955535;29;20512;-52
2021/11/08 07:26:58;;;;;;;14.03;13.33;;;20.30;99.90;;;;;;4955288;29;20453;-55
2021/11/08 07:29:26;;;;;;;13.27;12.40;;;20.30;99.90;;;;;;4954860;29;20476;-54
2021/11/08 07:31:54;;;;;;;13.47;12.83;;;20.20;99.90;;;;;;4955269;29;20815;-53
2021/11/08 07:34:21;;;;;;;11.97;11.27;;;20.20;99.90;;;;;;4955076;29;20817;-54
2021/11/08 07:36:49;;;;;;;11.80;11.10;;;20.20;99.90;;;;;;4955047;29;20531;-49
2021/11/08 07:39:17;;;;;;;11.93;11.33;;;20.10;99.90;;;;;;4954646;29;21191;-49
2021/11/08 07:41:43;;;;;;;11.53;10.90;;;20.10;99.90;;;;;;4954965;29;20463;-50
2021/11/08 07:44:10;;;;;;;13.40;12.70;;;20.10;99.90;;;;;;4954978;29;20456;-52
2021/11/08 07:46:37;;;;;;;10.60;9.93;;;20.00;99.90;;;;;;4954902;29;20462;-48
2021/11/08 07:49:04;;;;;;;11.43;10.93;;;20.00;99.90;;;;;;4954638;29;20452;-56
2021/11/08 07:51:31;;;;;;;13.53;12.83;;;20.00;99.90;;;;;;4954812;29;20523;-55
2021/11/08 07:53:59;;;;;;;10.33;9.87;;;20.00;99.90;;;;;;4954681;29;20456;-53
2021/11/08 07:56:26;;;;;;;11.70;10.73;;;19.90;99.90;;;;;;4954781;29;20536;-48
2021/11/08 07:58:53;;;;;;;10.40;10.00;;;19.90;99.90;;;;;;4954377;29;20852;-52
2021/11/08 08:01:20;;;;;;;12.40;11.90;;;19.90;99.90;;;;;;4954738;29;20519;-49
2021/11/08 08:03:47;;;;;;;12.70;12.10;;;19.90;99.90;;;;;;4954546;29;20943;-55
2021/11/08 08:06:15;;;;;;;12.20;11.70;;;19.80;99.90;;;;;;4954518;29;20842;-49
2021/11/08 08:08:42;;;;;;;11.93;11.43;;;19.80;99.90;;;;;;4954321;29;20457;-50
2021/11/08 08:11:10;;;;;;;12.50;11.73;;;19.80;99.90;;;;;;4954386;29;20472;-53
2021/11/08 08:13:38;;;;;;;12.50;11.77;;;19.80;99.90;;;;;;4954318;29;20503;-57
2021/11/08 08:16:07;;;;;;;12.27;11.80;;;19.80;99.90;;;;;;4954461;29;20457;-50
2021/11/08 08:18:38;;;;;;;12.83;12.33;;;19.80;99.90;;;;;;4954184;29;20448;-50
2021/11/08 08:21:06;;;;;;;12.57;12.00;;;19.80;99.90;;;;;;4954119;29;21026;-53
2021/11/08 08:23:33;;;;;;;13.53;13.03;;;19.70;99.90;;;;;;4954336;28;20531;-52
2021/11/08 08:26:00;;;;;;;12.90;12.40;;;19.60;99.90;;;;;;4954253;28;20453;-52
2021/11/08 08:28:28;;;;;;;12.60;12.10;;;19.60;99.90;;;;;;4953817;28;20456;-54
2021/11/08 08:30:55;;;;;;;12.77;12.20;;;19.60;99.90;;;;;;4953964;29;20465;-59
2021/11/08 08:33:22;;;;;;;12.33;11.83;;;19.60;99.90;;;;;;4954035;29;20922;-58
2021/11/08 08:35:49;;;;;;;14.33;13.63;;;19.60;99.90;;;;;;4954051;29;20448;-59
2021/11/08 08:38:18;;;;;;;13.20;12.70;;;19.60;99.90;;;;;;4953901;29;20455;-59
2021/11/08 08:40:45;;;;;;;13.17;12.70;;;19.50;99.90;;;;;;4953592;29;20571;-59
2021/11/08 08:43:12;;;;;;;12.57;12.03;;;19.50;99.90;;;;;;4953897;28;20499;-56
2021/11/08 08:45:40;;;;;;;13.20;12.60;;;19.50;99.90;;;;;;4954010;29;20444;-57
2021/11/08 08:48:08;;;;;;;12.87;12.40;;;19.60;99.90;;;;;;4953835;29;20817;-57
2021/11/08 08:50:35;;;;;;;13.50;12.90;;;19.60;99.90;;;;;;4953567;29;20456;-57
2021/11/08 08:53:02;;;;;;;12.83;12.30;;;19.50;99.90;;;;;;4953730;29;20452;-55
2021/11/08 08:55:28;;;;;;;12.77;12.27;;;19.60;99.90;;;;;;4953688;29;20449;-57
2021/11/08 08:57:57;;;;;;;12.40;11.80;;;19.60;99.90;;;;;;4953708;29;20945;-58
2021/11/08 09:00:24;;;;;;;12.53;11.77;;;19.60;99.90;;;;;;4953341;29;21025;-59
2021/11/08 09:02:54;;;;;;;11.40;11.10;;;19.50;99.90;;;;;;4953647;29;20449;-54
2021/11/08 09:05:22;;;;;;;12.30;11.80;;;19.60;99.90;;;;;;4953734;29;20471;-59
2021/11/08 09:07:49;;;;;;;12.00;11.60;;;19.50;99.90;;;;;;4953633;29;20511;-55
2021/11/08 09:10:15;;;;;;;11.57;11.17;;;19.50;99.90;;;;;;4953337;29;20851;-56
2021/11/08 09:12:43;;;;;;;13.00;12.37;;;19.50;99.90;;;;;;4953507;29;20946;-59
2021/11/08 09:15:10;;;;;;;13.37;12.80;;;19.50;99.90;;;;;;4953536;29;20523;-59
2021/11/08 09:17:37;;;;;;;12.43;12.03;;;19.40;99.90;;;;;;4953340;29;20970;-59
2021/11/08 09:20:07;;;;;;;13.10;12.43;;;19.40;99.90;;;;;;4953425;29;20491;-59
2021/11/08 09:22:34;;;;;;;12.63;12.23;;;19.40;99.90;;;;;;4953542;28;20459;-53
2021/11/08 09:25:01;;;;;;;13.20;12.70;;;19.40;99.90;;;;;;4953362;29;20938;-53
2021/11/08 09:27:28;;;;;;;13.80;13.10;;;19.40;99.90;;;;;;4953325;29;20449;-57
2021/11/08 09:29:54;;;;;;;12.80;12.20;;;19.40;99.90;;;;;;4952998;29;20850;-59
2021/11/08 09:32:21;;;;;;;12.57;12.07;;;19.40;99.90;;;;;;4953266;29;20859;-58
2021/11/08 09:34:49;;;;;;;12.67;12.10;;;19.40;99.90;;;;;;4953406;29;20453;-58
2021/11/08 09:37:18;;;;;;;12.17;11.77;;;19.40;99.90;;;;;;4953455;29;20456;-55
2021/11/08 09:39:46;;;;;;;11.83;11.40;;;19.40;99.90;;;;;;4952955;28;21037;-55
2021/11/08 09:42:16;;;;;;;12.07;11.67;;;19.30;99.90;;;;;;4957174;29;20453;-57
2021/11/08 09:44:44;;;;;;;12.00;11.60;;;19.30;99.90;;;;;;4957308;29;20474;-59
2021/11/08 09:47:12;;;;;;;11.67;11.27;;;19.30;99.90;;;;;;4957098;29;20950;-56
2021/11/08 09:49:42;;;;;;;12.30;11.80;;;19.20;99.90;;;;;;4956800;29;20472;-57
2021/11/08 09:52:12;;;;;;;12.50;12.10;;;19.20;99.90;;;;;;4957055;29;20444;-60
2021/11/08 09:54:43;;;;;;;12.23;11.90;;;19.20;99.90;;;;;;4957011;29;20452;-58
2021/11/08 09:57:10;;;;;;;12.33;11.80;;;19.20;99.90;;;;;;4957104;29;20543;-56
2021/11/08 09:59:37;;;;;;;13.17;12.57;;;19.20;99.90;;;;;;4956548;29;20484;-57
2021/11/08 10:02:10;;;;;;;11.70;11.30;;;19.20;99.90;;;;;;4956813;29;20965;-56
2021/11/08 10:04:36;;;;;;;12.33;11.80;;;19.20;99.90;;;;;;4956821;29;20455;-58
2021/11/08 10:07:04;;;;;;;12.37;11.97;;;19.20;99.90;;;;;;4956761;29;20459;-57
2021/11/08 10:09:31;;;;;;;11.93;11.30;;;19.30;99.90;;;;;;4956431;29;20468;-58
2021/11/08 10:11:59;;;;;;;12.87;12.27;;;19.40;99.90;;;;;;4956574;29;20460;-57
2021/11/08 10:14:26;;;;;;;11.80;11.40;;;19.50;99.90;;;;;;4956699;29;20957;-58
2021/11/08 10:16:58;;;;;;;11.87;11.47;;;19.60;99.90;;;;;;4956633;29;20471;-59
2021/11/08 10:19:26;;;;;;;11.03;10.60;;;19.70;99.90;;;;;;4956118;29;20473;-58
2021/11/08 10:21:55;;;;;;;11.40;11.00;;;19.80;99.90;;;;;;4956428;29;20456;-57
2021/11/08 10:24:26;;;;;;;12.10;11.40;;;19.80;99.90;;;;;;4956452;29;20448;-55
2021/11/08 10:26:55;;;;;;;11.90;11.23;;;19.90;99.90;;;;;;4956360;29;20957;-58
2021/11/08 10:29:24;;;;;;;11.10;10.77;;;19.90;99.50;;;;;;4955916;29;20484;-59
2021/11/08 10:31:54;;;;;;;11.53;11.20;;;19.80;99.40;;;;;;4956361;29;20839;-60
2021/11/08 10:34:22;;;;;;;12.33;11.93;;;19.80;99.60;;;;;;4956347;29;20455;-59
2021/11/08 10:36:57;;;;;;;11.63;11.33;;;19.70;99.80;;;;;;4956223;29;20457;-59
2021/11/08 10:39:24;;;;;;;12.73;12.33;;;19.60;99.90;;;;;;4955910;29;20475;-59
2021/11/08 10:41:53;;;;;;;12.20;11.77;;;19.60;99.90;;;;;;4956154;29;20452;-56
2021/11/08 10:44:22;;;;;;;12.23;11.83;;;19.60;99.90;;;;;;4956060;29;20847;-55
2021/11/08 10:46:55;;;;;;;13.00;12.60;;;19.50;99.90;;;;;;4956023;29;20453;-57
2021/11/08 10:49:24;;;;;;;13.13;12.53;;;19.60;99.90;;;;;;4955723;29;20476;-57
2021/11/08 10:51:54;;;;;;;12.03;11.63;;;19.60;99.90;;;;;;4955309;28;20456;-54
2021/11/08 10:54:23;;;;;;;11.83;11.47;;;19.60;99.90;;;;;;4955938;29;20796;-58
2021/11/08 10:56:56;;;;;;;12.90;12.40;;;19.60;99.90;;;;;;4955810;29;20551;-57
2021/11/08 10:59:29;;;;;;;12.10;11.80;;;19.60;99.80;;;;;;4955559;29;20480;-59
2021/11/08 11:01:59;;;;;;;12.57;12.07;;;19.60;99.60;;;;;;4955666;29;20491;-59
2021/11/08 11:04:33;;;;;;;12.50;12.10;;;19.60;99.50;;;;;;4956040;29;20468;-57
2021/11/08 11:07:00;;;;;;;12.50;12.00;;;19.60;99.40;;;;;;4955917;29;20471;-55
2021/11/08 11:09:29;;;;;;;12.30;11.90;;;19.80;99.30;;;;;;4955439;29;20484;-59
2021/11/08 11:12:10;;;;;;;12.67;12.17;;;19.80;99.00;;;;;;4955600;28;20962;-59
2021/11/08 11:14:39;;;;;;;12.77;12.37;;;20.00;98.70;;;;;;4955646;28;20448;-60
2021/11/08 11:17:09;;;;;;;12.67;12.10;;;20.10;98.30;;;;;;4955474;29;20448;-60
2021/11/08 11:19:37;;;;;;;13.03;12.60;;;20.40;97.70;;;;;;4955244;29;20477;-57
2021/11/08 11:22:07;;;;;;;12.87;12.23;;;20.80;96.50;;;;;;4955509;29;20489;-59
2021/11/08 11:24:41;;;;;;;13.20;12.80;;;21.00;95.50;;;;;;4955365;29;20551;-56
2021/11/08 11:27:11;;;;;;;12.90;12.50;;;21.00;94.90;;;;;;4955412;29;20448;-57
2021/11/08 11:29:37;;;;;;;13.20;12.80;;;21.30;94.20;;;;;;4954902;29;20480;-58
2021/11/08 11:32:16;;;;;;;12.97;12.57;;;21.40;92.90;;;;;;4955029;29;20445;-57
2021/11/08 11:34:43;;;;;;;12.63;12.00;;;21.60;92.40;;;;;;4939153;29;20485;-56
2021/11/08 11:37:13;;;;;;;12.83;12.43;;;21.50;92.80;;;;;;4938153;29;20441;-58
2021/11/08 11:39:40;;;;;;;13.70;13.00;;;21.40;93.70;;;;;;4937974;29;20488;-53
2021/11/08 11:42:07;;;;;;;14.87;14.03;;;21.30;94.40;;;;;;4955107;29;20448;-52
2021/11/08 11:44:35;;;;;;;15.27;14.37;;;21.30;95.30;;;;;;4955810;29;20467;-57
2021/11/08 11:47:02;;;;;;;14.43;13.63;;;21.20;95.90;;;;;;4955426;29;20498;-55
2021/11/08 11:49:32;;;;;;;14.67;13.90;;;21.20;97.10;;;;;;4955796;29;21025;-53
2021/11/08 11:52:00;;;;;;;14.97;14.07;;;21.10;98.30;;;;;;4955755;29;20508;-53
2021/11/08 11:54:30;;;;;;;16.43;15.30;;;21.00;99.40;;;;;;4959699;29;20476;-56
2021/11/08 11:56:59;;;;;;;15.30;14.40;;;21.00;99.90;;;;;;4959663;29;20512;-51
2021/11/08 11:59:26;;;;;;;13.70;13.10;;;21.00;99.90;;;;;;4959088;29;20457;-52
2021/11/08 12:01:54;;;;;;;14.63;13.63;;;20.90;99.90;;;;;;4958881;29;20902;-50
2021/11/08 12:04:21;;;;;;;13.23;12.57;;;20.80;99.90;;;;;;4958760;28;20456;-52
2021/11/08 12:06:53;;;;;;;13.30;12.70;;;20.80;99.90;;;;;;4961367;29;20459;-52
2021/11/08 12:09:21;;;;;;;14.13;13.33;;;20.70;99.90;;;;;;4959429;29;20503;-60
2021/11/08 12:11:52;;;;;;;13.63;12.73;;;20.60;99.90;;;;;;4954203;29;20859;-56
2021/11/08 12:14:22;;;;;;;12.97;12.47;;;20.50;99.90;;;;;;4954147;29;20455;-55
2021/11/08 12:16:55;;;;;;;13.30;12.70;;;20.50;99.90;;;;;;4954588;29;20452;-56
2021/11/08 12:19:25;;;;;;;12.50;12.00;;;20.50;99.90;;;;;;4954385;28;20885;-56
2021/11/08 12:21:54;;;;;;;13.10;12.50;;;20.40;99.90;;;;;;4954304;29;20484;-54
2021/11/08 12:24:23;;;;;;;13.30;12.80;;;20.40;99.90;;;;;;4954134;29;20456;-56
2021/11/08 12:27:01;;;;;;;13.67;12.97;;;20.40;99.90;;;;;;4954274;29;20874;-56
2021/11/08 12:29:28;;;;;;;13.60;13.10;;;20.40;99.90;;;;;;4953807;29;20477;-58
2021/11/08 12:32:02;;;;;;;12.87;12.47;;;20.40;99.90;;;;;;4954043;29;20448;-58
2021/11/08 12:34:38;;;;;;;14.67;13.77;;;20.30;99.90;;;;;;4954271;29;20452;-52
2021/11/08 12:37:06;;;;;;;13.37;12.77;;;20.30;99.90;;;;;;4954109;28;20449;-59
2021/11/08 12:39:33;;;;;;;13.10;12.63;;;20.20;99.90;;;;;;4953699;29;20476;-57
2021/11/08 12:42:04;;;;;;;12.90;12.43;;;20.20;99.90;;;;;;4953955;29;20853;-55
2021/11/08 12:44:37;;;;;;;12.10;11.70;;;20.10;99.90;;;;;;4953877;29;20448;-53
2021/11/08 12:47:05;;;;;;;12.70;12.20;;;20.10;99.90;;;;;;4953954;29;20449;-59
2021/11/08 12:49:34;;;;;;;13.10;12.70;;;20.10;99.90;;;;;;4953624;29;20469;-53
2021/11/08 12:52:09;;;;;;;13.13;12.63;;;20.00;99.90;;;;;;4953837;29;20445;-54
2021/11/08 12:54:47;;;;;;;14.53;13.93;;;20.00;99.90;;;;;;4953830;28;20456;-53
2021/11/08 12:57:16;;;;;;;13.63;13.20;;;19.90;99.90;;;;;;4953748;29;20441;-56
2021/11/08 12:59:45;;;;;;;14.77;14.27;;;19.90;99.90;;;;;;4953277;29;20483;-59
2021/11/08 13:02:25;;;;;;;13.07;12.53;;;19.90;99.90;;;;;;4953655;29;20507;-56
2021/11/08 13:04:54;;;;;;;13.93;13.30;;;19.90;99.90;;;;;;4953721;29;20459;-55
2021/11/08 13:07:22;;;;;;;12.60;12.10;;;19.80;99.90;;;;;;4953612;29;20449;-56
2021/11/08 13:09:53;;;;;;;12.73;12.33;;;19.80;99.90;;;;;;4953272;29;20472;-55
2021/11/08 13:12:23;;;;;;;12.50;12.10;;;19.80;99.90;;;;;;4953538;29;20441;-58
2021/11/08 13:15:03;;;;;;;12.20;11.80;;;19.70;99.90;;;;;;4953184;28;20888;-59
2021/11/08 13:17:30;;;;;;;12.53;12.00;;;19.80;99.90;;;;;;4953789;29;20448;-58
2021/11/08 13:20:01;;;;;;;11.70;11.40;;;19.70;99.90;;;;;;4953303;29;20994;-54
2021/11/08 13:22:31;;;;;;;12.40;12.10;;;19.70;99.90;;;;;;4953505;29;20492;-58
2021/11/08 13:25:08;;;;;;;11.53;11.23;;;19.70;99.90;;;;;;4953353;28;20457;-56
2021/11/08 13:27:35;;;;;;;12.70;12.30;;;19.70;99.90;;;;;;4953481;29;20452;-56
2021/11/08 13:30:05;;;;;;;12.27;11.87;;;19.70;99.90;;;;;;4952909;28;20483;-55
2021/11/08 13:32:32;;;;;;;12.27;11.87;;;19.70;99.90;;;;;;4953393;29;20451;-55
2021/11/08 13:35:09;;;;;;;12.20;11.80;;;19.70;99.90;;;;;;4953258;29;20451;-53
2021/11/08 13:37:38;;;;;;;13.10;12.70;;;19.80;99.90;;;;;;4953411;29;20440;-58
2021/11/08 13:40:23;;;;;;;13.00;12.60;;;19.80;99.90;;;;;;4953102;29;20476;-58
2021/11/08 13:42:52;;;;;;;13.00;12.60;;;19.90;99.90;;;;;;4953221;29;20784;-57
2021/11/08 13:45:19;;;;;;;12.97;12.57;;;19.90;99.90;;;;;;4953323;28;20440;-54
2021/11/08 13:47:49;;;;;;;12.50;12.10;;;19.90;99.90;;;;;;4953355;29;20441;-57
2021/11/08 13:50:19;;;;;;;12.20;11.70;;;19.90;99.90;;;;;;4952825;28;20496;-57
2021/11/08 13:52:46;;;;;;;13.30;12.77;;;19.90;99.90;;;;;;4953330;29;20791;-59
2021/11/08 13:55:16;;;;;;;11.93;11.60;;;19.90;99.90;;;;;;4953096;29;20942;-58